Time;durP1;ratioP1;P1;durP2;ratioP2;P2;SDS_P1;SDS_P2;PMS_P1;PMS_P2;Temp;Humidity;BMP_temperature;BMP_pressure;BME280_temperature;BME280_humidity;BME280_pressure;Samples;Min_cycle;Max_cycle;Signal;HPM_P1;HPM_P2
2021/08/28 00:01:49;;;;;;;1003.13;899.92;;;;;;;;;;4974655;28;20023;-77
2021/08/28 00:04:15;;;;;;;1004.65;901.08;;;;;;;;;;4980960;28;20096;-77
2021/08/28 00:06:41;;;;;;;1010.20;906.50;;;;;;;;;;5005525;28;20019;-77
2021/08/28 00:09:07;;;;;;;1011.20;907.53;;;;;;;;;;4998957;28;20048;-77
2021/08/28 00:11:33;;;;;;;1014.08;910.33;;;;;;;;;;4993995;28;20121;-77
2021/08/28 00:13:59;;;;;;;1027.22;922.72;;;;;;;;;;4990837;28;20031;-77
2021/08/28 00:16:27;;;;;;;1025.25;921.05;;;;;;;;;;4990442;28;20073;-78
2021/08/28 00:18:53;;;;;;;1018.25;914.25;;;;;;;;;;4989404;28;20057;-77
2021/08/28 00:21:18;;;;;;;1026.85;922.15;;;;;;;;;;4986542;28;20026;-77
2021/08/28 00:23:44;;;;;;;1039.68;934.60;;;;;;;;;;4994148;28;20138;-77
2021/08/28 00:26:10;;;;;;;1021.20;917.40;;;;;;;;;;4980994;28;20026;-77
2021/08/28 00:28:36;;;;;;;1026.82;922.63;;;;;;;;;;4977577;28;20026;-77
2021/08/28 00:31:02;;;;;;;1034.07;929.38;;;;;;;;;;4995422;28;20042;-77
2021/08/28 00:33:28;;;;;;;1035.40;930.70;;;;;;;;;;4995421;28;20112;-77
2021/08/28 00:35:54;;;;;;;1031.03;926.40;;;;;;;;;;4978920;28;20029;-77
2021/08/28 00:38:20;;;;;;;1027.20;923.20;;;;;;;;;;4981919;28;20029;-77
2021/08/28 00:40:46;;;;;;;1036.88;932.25;;;;;;;;;;4983494;28;20037;-77
2021/08/28 00:43:12;;;;;;;1041.93;936.78;;;;;;;;;;4977757;28;20034;-77
2021/08/28 00:45:39;;;;;;;1043.80;938.80;;;;;;;;;;4977242;28;20026;-77
2021/08/28 00:48:06;;;;;;;1034.65;930.38;;;;;;;;;;4993719;28;20028;-77
2021/08/28 00:50:33;;;;;;;1029.15;924.95;;;;;;;;;;4996923;28;20022;-78
2021/08/28 00:53:00;;;;;;;1033.03;928.75;;;;;;;;;;4968220;28;20500;-78
2021/08/28 00:55:26;;;;;;;1034.13;929.78;;;;;;;;;;4995353;28;20037;-77
2021/08/28 00:57:53;;;;;;;1042.45;937.58;;;;;;;;;;4996800;28;20038;-77
2021/08/28 01:00:20;;;;;;;1047.28;941.90;;;;;;;;;;4941951;28;1056198;-77
2021/08/28 01:02:47;;;;;;;1028.93;924.95;;;;;;;;;;4978480;28;20034;-78
2021/08/28 01:05:22;;;;;;;1035.18;930.78;;;;;;;;;;4978644;28;20505;-77
2021/08/28 01:07:58;;;;;;;1028.68;924.50;;;;;;;;;;4978288;28;20066;-78
2021/08/28 01:10:27;;;;;;;1033.57;929.25;;;;;;;;;;4990632;28;20018;-77
2021/08/28 01:12:57;;;;;;;1037.25;932.28;;;;;;;;;;4995727;28;20870;-77
2021/08/28 01:15:24;;;;;;;1030.68;926.08;;;;;;;;;;4995518;28;20034;-77
2021/08/28 01:17:52;;;;;;;1029.95;925.78;;;;;;;;;;4978171;28;20084;-78
2021/08/28 01:20:26;;;;;;;1036.07;931.70;;;;;;;;;;4977725;28;20026;-77
2021/08/28 01:22:53;;;;;;;1023.42;919.78;;;;;;;;;;4994057;28;20033;-77
2021/08/28 01:25:19;;;;;;;1023.45;919.70;;;;;;;;;;4982311;28;20065;-77
2021/08/28 01:28:04;;;;;;;1027.65;923.67;;;;;;;;;;4982523;28;20058;-77
2021/08/28 01:30:30;;;;;;;1020.00;916.45;;;;;;;;;;4978003;28;20030;-77
2021/08/28 01:32:56;;;;;;;1023.80;919.90;;;;;;;;;;4994373;28;20386;-78
2021/08/28 01:35:23;;;;;;;1024.90;921.13;;;;;;;;;;4999050;28;20040;-77
2021/08/28 01:37:49;;;;;;;1031.07;926.97;;;;;;;;;;4997462;28;20041;-77
2021/08/28 01:40:16;;;;;;;1032.82;928.65;;;;;;;;;;4980478;28;20019;-77
2021/08/28 01:42:43;;;;;;;1026.88;922.97;;;;;;;;;;4994827;28;20018;-78
2021/08/28 01:45:13;;;;;;;1027.88;923.88;;;;;;;;;;4995097;28;20026;-78
2021/08/28 01:47:43;;;;;;;1028.45;924.58;;;;;;;;;;4995342;28;20019;-77
2021/08/28 01:50:09;;;;;;;1035.45;930.95;;;;;;;;;;4991013;28;20089;-77
2021/08/28 01:52:36;;;;;;;1028.38;924.10;;;;;;;;;;4995859;28;20446;-78
2021/08/28 01:55:02;;;;;;;1030.35;926.20;;;;;;;;;;4984764;28;20033;-77
2021/08/28 01:57:29;;;;;;;1025.68;921.97;;;;;;;;;;4994042;28;20053;-77
2021/08/28 01:59:55;;;;;;;1030.68;926.58;;;;;;;;;;4993463;28;20103;-78
2021/08/28 02:02:21;;;;;;;1033.60;929.55;;;;;;;;;;5002899;28;20030;-78
2021/08/28 02:04:48;;;;;;;1038.25;932.55;;;;;;;;;;5002524;28;20079;-78
2021/08/28 02:07:21;;;;;;;1036.85;932.38;;;;;;;;;;4996711;28;20022;-78
2021/08/28 02:10:02;;;;;;;1043.70;938.75;;;;;;;;;;4996293;28;20046;-77
2021/08/28 02:12:34;;;;;;;1041.43;936.55;;;;;;;;;;4977394;28;20030;-77
2021/08/28 02:15:06;;;;;;;1035.85;931.45;;;;;;;;;;4993324;28;20031;-77
2021/08/28 02:17:33;;;;;;;1035.00;930.05;;;;;;;;;;4977431;28;20035;-78
2021/08/28 02:20:02;;;;;;;1037.65;932.95;;;;;;;;;;4976676;28;20030;-77
2021/08/28 02:22:29;;;;;;;1034.05;929.75;;;;;;;;;;4993154;28;20390;-78
2021/08/28 02:24:59;;;;;;;1044.93;939.58;;;;;;;;;;5001183;28;20032;-78
2021/08/28 02:27:45;;;;;;;1030.57;926.60;;;;;;;;;;4996442;28;20504;-77
2021/08/28 02:30:13;;;;;;;1024.60;920.80;;;;;;;;;;4975956;28;20639;-78
2021/08/28 02:32:39;;;;;;;1036.47;932.28;;;;;;;;;;4977475;28;20430;-77
2021/08/28 02:35:07;;;;;;;1025.53;921.83;;;;;;;;;;4980660;28;20120;-78
2021/08/28 02:37:34;;;;;;;1038.90;934.47;;;;;;;;;;4994192;28;20112;-78
2021/08/28 02:40:02;;;;;;;1038.82;934.33;;;;;;;;;;4975536;28;20022;-78
2021/08/28 02:42:28;;;;;;;1037.32;932.75;;;;;;;;;;4996050;28;20077;-77
2021/08/28 02:44:54;;;;;;;1040.45;936.03;;;;;;;;;;5013457;28;20100;-77
2021/08/28 02:47:21;;;;;;;1043.47;938.78;;;;;;;;;;4984218;28;20022;-78
2021/08/28 02:49:48;;;;;;;1043.78;939.35;;;;;;;;;;4993962;28;20030;-77
2021/08/28 02:52:16;;;;;;;1041.15;936.90;;;;;;;;;;4983461;28;20034;-77
2021/08/28 02:54:42;;;;;;;1044.43;939.55;;;;;;;;;;4995365;28;20038;-79
2021/08/28 02:57:08;;;;;;;1048.82;944.10;;;;;;;;;;4995937;28;20030;-77
2021/08/28 02:59:35;;;;;;;1034.18;930.03;;;;;;;;;;4982823;28;20054;-78
2021/08/28 03:02:01;;;;;;;1051.75;946.92;;;;;;;;;;4992795;28;20037;-77
2021/08/28 03:04:28;;;;;;;1032.35;928.55;;;;;;;;;;4992704;28;20029;-77
2021/08/28 03:06:54;;;;;;;1050.10;945.20;;;;;;;;;;4988727;28;20041;-77
2021/08/28 03:09:20;;;;;;;1049.50;944.58;;;;;;;;;;4992915;28;20034;-78
2021/08/28 03:11:47;;;;;;;1036.03;932.00;;;;;;;;;;5005721;28;20037;-78
2021/08/28 03:14:13;;;;;;;1050.60;945.65;;;;;;;;;;4994385;28;20351;-78
2021/08/28 03:16:44;;;;;;;1053.28;948.08;;;;;;;;;;4993394;28;20030;-78
2021/08/28 03:19:11;;;;;;;1045.55;940.88;;;;;;;;;;4998301;28;20105;-77
2021/08/28 03:21:39;;;;;;;1056.20;950.67;;;;;;;;;;4985940;28;20060;-78
2021/08/28 03:24:05;;;;;;;1032.90;928.38;;;;;;;;;;4976611;28;20590;-78
2021/08/28 03:26:32;;;;;;;1051.97;945.40;;;;;;;;;;4975857;28;20027;-77
2021/08/28 03:28:59;;;;;;;1054.70;949.17;;;;;;;;;;4993423;28;20023;-78
2021/08/28 03:31:25;;;;;;;1999.90;999.60;;;;;;;;;;4999773;28;20377;-78
2021/08/28 03:33:55;;;;;;;1999.90;993.67;;;;;;;;;;4992096;28;20505;-78
2021/08/28 03:36:21;;;;;;;632.33;479.52;;;;;;;;;;4985204;28;20026;-77
2021/08/28 03:38:48;;;;;;;1999.90;999.90;;;;;;;;;;4975771;28;20037;-78
2021/08/28 03:41:15;;;;;;;1999.90;999.90;;;;;;;;;;4992797;28;20050;-78
2021/08/28 03:43:45;;;;;;;1999.90;999.90;;;;;;;;;;4975866;28;20109;-77
2021/08/28 03:46:11;;;;;;;1043.05;938.20;;;;;;;;;;4980902;28;20034;-77
2021/08/28 03:48:38;;;;;;;1047.88;942.88;;;;;;;;;;4994859;28;20034;-78
2021/08/28 03:51:04;;;;;;;1043.55;938.70;;;;;;;;;;4993761;28;20133;-77
2021/08/28 03:53:30;;;;;;;1051.03;945.83;;;;;;;;;;4990605;28;20121;-78
2021/08/28 03:55:56;;;;;;;1043.00;938.40;;;;;;;;;;4988335;28;20031;-77
2021/08/28 03:58:23;;;;;;;1043.63;938.88;;;;;;;;;;4972260;28;20031;-77
2021/08/28 04:00:49;;;;;;;1042.75;937.95;;;;;;;;;;4975089;28;20053;-77
2021/08/28 04:03:15;;;;;;;1047.90;942.85;;;;;;;;;;4975655;28;20474;-77
2021/08/28 04:05:41;;;;;;;1044.28;939.35;;;;;;;;;;4975840;28;20034;-78
2021/08/28 04:08:07;;;;;;;1039.75;935.00;;;;;;;;;;4992978;28;20022;-77
2021/08/28 04:10:33;;;;;;;1000.67;899.35;;;;;;;;;;4975225;28;20037;-77
2021/08/28 04:12:59;;;;;;;1032.55;928.00;;;;;;;;;;5005356;28;20027;-77
2021/08/28 04:15:25;;;;;;;1026.57;922.97;;;;;;;;;;4991603;28;20045;-77
2021/08/28 04:17:51;;;;;;;1035.95;920.55;;;;;;;;;;5008554;28;20033;-77
2021/08/28 04:20:17;;;;;;;1023.33;918.28;;;;;;;;;;4975233;28;20031;-78
2021/08/28 04:22:43;;;;;;;1012.30;909.35;;;;;;;;;;4977228;28;20713;-78
2021/08/28 04:25:10;;;;;;;1459.30;901.67;;;;;;;;;;4994458;28;20030;-77
2021/08/28 04:27:36;;;;;;;986.08;881.30;;;;;;;;;;4994352;28;20092;-78
2021/08/28 04:30:02;;;;;;;1026.28;888.13;;;;;;;;;;5012450;28;20022;-78
2021/08/28 04:32:28;;;;;;;1023.88;899.58;;;;;;;;;;4999808;28;20034;-78
2021/08/28 04:34:54;;;;;;;1026.95;923.28;;;;;;;;;;4975053;28;20030;-80
2021/08/28 04:37:20;;;;;;;499.77;239.60;;;;;;;;;;4989692;28;20026;-77
2021/08/28 04:39:46;;;;;;;553.03;332.45;;;;;;;;;;5012013;28;20030;-77
2021/08/28 04:42:11;;;;;;;1003.42;902.33;;;;;;;;;;4991150;28;20022;-77
2021/08/28 04:44:37;;;;;;;1030.18;926.50;;;;;;;;;;5012168;28;20087;-77
2021/08/28 04:47:04;;;;;;;1030.45;926.72;;;;;;;;;;5011654;28;20159;-77
2021/08/28 04:49:29;;;;;;;1022.33;918.92;;;;;;;;;;4978356;28;20078;-77
2021/08/28 04:51:55;;;;;;;1024.93;920.47;;;;;;;;;;4995219;28;20057;-77
2021/08/28 04:54:22;;;;;;;1037.70;933.33;;;;;;;;;;4974599;28;20022;-77
2021/08/28 04:56:47;;;;;;;1025.75;922.05;;;;;;;;;;4996287;28;20036;-77
2021/08/28 04:59:13;;;;;;;1019.25;916.00;;;;;;;;;;4978366;28;20050;-77
2021/08/28 05:01:41;;;;;;;1023.05;919.38;;;;;;;;;;4991161;28;20093;-77
2021/08/28 05:04:07;;;;;;;1016.65;913.28;;;;;;;;;;4977294;28;20390;-77
2021/08/28 05:06:33;;;;;;;1026.68;922.88;;;;;;;;;;4991343;28;20041;-77
2021/08/28 05:08:59;;;;;;;1025.35;921.83;;;;;;;;;;4988942;28;20031;-77
2021/08/28 05:11:25;;;;;;;1024.28;920.85;;;;;;;;;;4995794;28;20022;-77
2021/08/28 05:13:51;;;;;;;1027.78;924.28;;;;;;;;;;4986611;28;20026;-77
2021/08/28 05:16:17;;;;;;;1031.72;927.90;;;;;;;;;;4997626;28;20026;-78
2021/08/28 05:18:43;;;;;;;1029.40;925.80;;;;;;;;;;4987686;28;20089;-77
2021/08/28 05:21:09;;;;;;;1041.28;937.00;;;;;;;;;;4978096;28;20026;-78
2021/08/28 05:23:35;;;;;;;1030.50;926.85;;;;;;;;;;4994025;28;20038;-77
2021/08/28 05:26:01;;;;;;;1038.03;933.72;;;;;;;;;;4979961;28;20060;-78
2021/08/28 05:28:27;;;;;;;1027.47;923.83;;;;;;;;;;4995527;28;20027;-78
2021/08/28 05:30:53;;;;;;;1030.13;926.25;;;;;;;;;;4978041;28;20098;-78
2021/08/28 05:33:19;;;;;;;1040.05;935.85;;;;;;;;;;4998157;28;20026;-78
2021/08/28 05:35:45;;;;;;;1046.57;942.10;;;;;;;;;;4977849;28;20462;-78
2021/08/28 05:38:11;;;;;;;1076.90;970.28;;;;;;;;;;4988474;28;20026;-78
2021/08/28 05:40:37;;;;;;;1079.10;972.25;;;;;;;;;;4996998;28;20121;-77
2021/08/28 05:43:04;;;;;;;1075.80;969.25;;;;;;;;;;4996480;28;20026;-78
2021/08/28 05:45:30;;;;;;;1067.75;961.75;;;;;;;;;;4996911;28;20022;-78
2021/08/28 05:47:56;;;;;;;1065.25;959.35;;;;;;;;;;4996362;28;20033;-78
2021/08/28 05:50:22;;;;;;;1073.47;966.97;;;;;;;;;;4997293;28;20065;-79
2021/08/28 05:52:48;;;;;;;1066.55;960.55;;;;;;;;;;4988371;28;20036;-79
2021/08/28 05:55:14;;;;;;;1070.63;964.22;;;;;;;;;;4993774;28;20022;-79
2021/08/28 05:57:43;;;;;;;1070.85;964.78;;;;;;;;;;4977664;28;20030;-78
2021/08/28 06:00:10;;;;;;;1071.90;965.60;;;;;;;;;;4977485;28;20046;-79
2021/08/28 06:02:36;;;;;;;1066.95;961.10;;;;;;;;;;4978988;28;20018;-79
2021/08/28 06:05:04;;;;;;;1077.55;970.97;;;;;;;;;;4977412;28;20022;-78
2021/08/28 06:07:30;;;;;;;1074.25;968.15;;;;;;;;;;4978315;28;20033;-79
2021/08/28 06:09:56;;;;;;;1072.28;966.22;;;;;;;;;;5011872;28;20026;-79
2021/08/28 06:12:22;;;;;;;1078.15;971.85;;;;;;;;;;5002833;28;20038;-79
2021/08/28 06:14:48;;;;;;;1071.18;965.10;;;;;;;;;;4975964;28;20033;-79
2021/08/28 06:17:14;;;;;;;1054.78;950.35;;;;;;;;;;4977315;28;20156;-79
2021/08/28 06:19:40;;;;;;;1039.88;936.90;;;;;;;;;;4976661;28;20030;-79
2021/08/28 06:22:06;;;;;;;1038.65;936.28;;;;;;;;;;4975371;28;20026;-79
2021/08/28 06:24:32;;;;;;;1077.47;971.40;;;;;;;;;;5003651;28;20018;-79
2021/08/28 06:26:58;;;;;;;1076.80;970.53;;;;;;;;;;4977108;28;20034;-79
2021/08/28 06:29:24;;;;;;;1079.32;973.00;;;;;;;;;;5002133;28;20029;-79
2021/08/28 06:31:50;;;;;;;1081.70;975.22;;;;;;;;;;4995245;28;20036;-79
2021/08/28 06:34:16;;;;;;;1085.70;979.22;;;;;;;;;;4996371;28;20189;-78
2021/08/28 06:36:42;;;;;;;1085.47;978.38;;;;;;;;;;4977023;28;20038;-78
2021/08/28 06:39:08;;;;;;;1095.63;988.40;;;;;;;;;;5005102;28;20034;-79
2021/08/28 06:41:34;;;;;;;1096.32;989.00;;;;;;;;;;4986420;28;20026;-78
2021/08/28 06:44:00;;;;;;;1087.80;980.90;;;;;;;;;;4993362;28;20033;-79
2021/08/28 06:46:26;;;;;;;1075.13;969.83;;;;;;;;;;4986113;28;20026;-79
2021/08/28 06:48:52;;;;;;;487.30;240.73;;;;;;;;;;5013468;28;20025;-78
2021/08/28 06:51:18;;;;;;;579.33;398.17;;;;;;;;;;4995963;28;20033;-79
2021/08/28 06:53:44;;;;;;;730.20;650.92;;;;;;;;;;4979150;28;20172;-79
2021/08/28 06:56:10;;;;;;;784.35;701.35;;;;;;;;;;4981167;28;20484;-79
2021/08/28 06:58:36;;;;;;;810.25;725.92;;;;;;;;;;4983710;28;20030;-78
2021/08/28 07:01:02;;;;;;;841.13;754.72;;;;;;;;;;4995032;28;20247;-79
2021/08/28 07:03:28;;;;;;;875.55;787.08;;;;;;;;;;4995675;28;20033;-80
2021/08/28 07:05:54;;;;;;;885.85;796.90;;;;;;;;;;5013009;28;20029;-79
2021/08/28 07:08:20;;;;;;;905.90;815.35;;;;;;;;;;4995527;28;20100;-79
2021/08/28 07:10:46;;;;;;;929.53;837.42;;;;;;;;;;4993797;28;20089;-79
2021/08/28 07:13:12;;;;;;;945.30;851.83;;;;;;;;;;4975638;28;20034;-78
2021/08/28 07:15:38;;;;;;;957.85;863.50;;;;;;;;;;4988839;28;20043;-78
2021/08/28 07:18:07;;;;;;;969.42;874.17;;;;;;;;;;4976327;28;20031;-79
2021/08/28 07:20:33;;;;;;;980.80;884.88;;;;;;;;;;5013132;28;20037;-79
2021/08/28 07:22:59;;;;;;;998.28;901.13;;;;;;;;;;4988680;28;20022;-78
2021/08/28 07:25:25;;;;;;;1004.47;906.88;;;;;;;;;;4991398;28;20030;-79
2021/08/28 07:27:51;;;;;;;1006.38;908.40;;;;;;;;;;4980076;28;20022;-77
2021/08/28 07:30:17;;;;;;;1020.10;921.10;;;;;;;;;;4982436;28;20072;-78
2021/08/28 07:32:44;;;;;;;1027.20;926.00;;;;;;;;;;4972937;28;20060;-77
2021/08/28 07:35:10;;;;;;;1035.82;935.22;;;;;;;;;;4991739;28;20038;-77
2021/08/28 07:37:36;;;;;;;1041.35;940.28;;;;;;;;;;4975799;28;20023;-77
2021/08/28 07:40:02;;;;;;;1999.90;973.95;;;;;;;;;;4975754;28;20085;-77
2021/08/28 07:42:28;;;;;;;853.70;765.92;;;;;;;;;;4980743;28;20057;-77
2021/08/28 07:44:54;;;;;;;824.50;718.35;;;;;;;;;;4992992;28;20058;-77
2021/08/28 07:47:20;;;;;;;1389.13;636.63;;;;;;;;;;4991151;28;20085;-76
2021/08/28 07:49:46;;;;;;;1999.90;999.90;;;;;;;;;;4991717;28;20478;-75
2021/08/28 07:52:14;;;;;;;1999.90;999.90;;;;;;;;;;4971744;28;20389;-77
2021/08/28 07:54:40;;;;;;;1999.90;999.90;;;;;;;;;;4970126;28;20584;-77
2021/08/28 07:57:06;;;;;;;1020.03;921.40;;;;;;;;;;4986929;28;20030;-77
2021/08/28 07:59:32;;;;;;;814.28;592.95;;;;;;;;;;4984275;28;20051;-76
2021/08/28 08:01:58;;;;;;;983.65;888.25;;;;;;;;;;4974866;28;20022;-78
2021/08/28 08:04:24;;;;;;;1066.22;963.40;;;;;;;;;;4974259;28;20161;-78
2021/08/28 08:06:50;;;;;;;1063.75;961.58;;;;;;;;;;4974717;28;20034;-77
2021/08/28 08:09:17;;;;;;;1062.32;960.22;;;;;;;;;;4988364;28;20023;-77
2021/08/28 08:11:43;;;;;;;1063.93;961.05;;;;;;;;;;4967586;28;20361;-76
2021/08/28 08:14:09;;;;;;;1066.85;964.13;;;;;;;;;;4973315;28;20050;-76
2021/08/28 08:16:35;;;;;;;1038.97;938.97;;;;;;;;;;4991281;28;20493;-76
2021/08/28 08:19:01;;;;;;;920.65;830.13;;;;;;;;;;4987359;28;20034;-77
2021/08/28 08:21:27;;;;;;;952.05;859.30;;;;;;;;;;4974754;28;20022;-77
2021/08/28 08:23:53;;;;;;;935.13;843.70;;;;;;;;;;4973175;28;20026;-77
2021/08/28 08:26:19;;;;;;;894.42;805.70;;;;;;;;;;4974476;28;20030;-75
2021/08/28 08:28:45;;;;;;;892.63;804.28;;;;;;;;;;5004634;28;20101;-76
2021/08/28 08:31:11;;;;;;;889.58;801.33;;;;;;;;;;4966784;28;20023;-76
2021/08/28 08:33:38;;;;;;;901.42;812.63;;;;;;;;;;4992031;28;20679;-75
2021/08/28 08:36:04;;;;;;;908.67;819.55;;;;;;;;;;4984988;28;20034;-75
2021/08/28 08:38:30;;;;;;;863.45;777.50;;;;;;;;;;4988791;28;20054;-75
2021/08/28 08:40:58;;;;;;;883.50;796.17;;;;;;;;;;4994483;28;20066;-83
2021/08/28 08:43:27;;;;;;;860.95;775.22;;;;;;;;;;4997742;28;20022;-79
2021/08/28 08:45:54;;;;;;;867.00;781.00;;;;;;;;;;4996302;28;20111;-79
2021/08/28 08:48:21;;;;;;;836.50;752.58;;;;;;;;;;4974040;28;20118;-83
2021/08/28 08:50:47;;;;;;;853.03;768.20;;;;;;;;;;4979218;28;20034;-80
2021/08/28 08:53:16;;;;;;;815.58;732.88;;;;;;;;;;4971276;28;20026;-79
2021/08/28 08:55:42;;;;;;;774.95;695.30;;;;;;;;;;4997994;28;20038;-80
2021/08/28 08:58:08;;;;;;;915.60;827.35;;;;;;;;;;4978684;28;20034;-80
2021/08/28 09:00:35;;;;;;;950.65;859.83;;;;;;;;;;4973393;28;20043;-79
2021/08/28 09:03:01;;;;;;;785.00;705.05;;;;;;;;;;4990616;28;20033;-80
2021/08/28 09:05:27;;;;;;;724.03;647.67;;;;;;;;;;4991069;28;20018;-80
2021/08/28 09:07:53;;;;;;;706.67;631.28;;;;;;;;;;4974285;28;20027;-80
2021/08/28 09:10:19;;;;;;;730.08;653.63;;;;;;;;;;4981947;28;20491;-80
2021/08/28 09:12:45;;;;;;;748.97;671.50;;;;;;;;;;4974018;28;20122;-80
2021/08/28 09:15:12;;;;;;;667.03;593.97;;;;;;;;;;4992285;28;20116;-80
2021/08/28 09:17:39;;;;;;;946.72;857.28;;;;;;;;;;4975131;28;20435;-80
2021/08/28 09:20:21;;;;;;;1140.60;999.90;;;;;;;;;;4977680;28;20030;-81
2021/08/28 09:22:47;;;;;;;1120.90;999.90;;;;;;;;;;4970114;28;20030;-81
2021/08/28 09:25:21;;;;;;;1120.72;999.90;;;;;;;;;;4996747;28;20466;-80
2021/08/28 09:27:47;;;;;;;1087.72;985.97;;;;;;;;;;4985108;28;20022;-79
2021/08/28 09:30:19;;;;;;;1108.28;999.55;;;;;;;;;;4971566;28;20038;-75
2021/08/28 09:32:48;;;;;;;1107.20;998.95;;;;;;;;;;4989834;28;20492;-75
2021/08/28 09:35:14;;;;;;;1124.00;999.90;;;;;;;;;;4989301;28;20474;-76
2021/08/28 09:37:42;;;;;;;1116.60;999.90;;;;;;;;;;4991721;28;20037;-79
2021/08/28 09:40:13;;;;;;;1121.05;999.90;;;;;;;;;;4976825;28;20073;-79
2021/08/28 09:42:40;;;;;;;1118.10;999.90;;;;;;;;;;4990558;28;20113;-76
2021/08/28 09:45:10;;;;;;;1094.18;992.47;;;;;;;;;;4996572;28;20169;-76
2021/08/28 09:47:36;;;;;;;1106.57;999.13;;;;;;;;;;4971742;28;20026;-78
2021/08/28 09:50:03;;;;;;;1124.30;999.90;;;;;;;;;;4989660;28;20251;-77
2021/08/28 09:52:29;;;;;;;1126.03;999.90;;;;;;;;;;4979808;28;20182;-77
2021/08/28 09:54:55;;;;;;;1121.78;999.90;;;;;;;;;;4968999;28;20541;-78
2021/08/28 09:57:21;;;;;;;1124.60;999.90;;;;;;;;;;4985580;28;20603;-78
2021/08/28 09:59:48;;;;;;;1122.90;999.90;;;;;;;;;;4975441;28;20042;-78
2021/08/28 10:02:15;;;;;;;1126.45;999.90;;;;;;;;;;4987299;28;20217;-78
2021/08/28 10:04:50;;;;;;;1138.35;999.90;;;;;;;;;;4988042;28;20046;-78
2021/08/28 10:07:42;;;;;;;1122.65;999.90;;;;;;;;;;4971184;28;20540;-78
2021/08/28 10:10:09;;;;;;;1111.38;999.90;;;;;;;;;;4983098;28;20537;-78
2021/08/28 10:12:36;;;;;;;1106.88;998.97;;;;;;;;;;4988236;28;20030;-80
2021/08/28 10:15:06;;;;;;;1107.10;999.90;;;;;;;;;;4988391;28;20041;-80
2021/08/28 10:17:32;;;;;;;860.03;776.53;;;;;;;;;;4970983;28;20034;-80
2021/08/28 10:19:59;;;;;;;1126.65;999.90;;;;;;;;;;4976175;28;20034;-79
2021/08/28 10:22:26;;;;;;;1129.85;999.90;;;;;;;;;;4974343;28;20026;-79
2021/08/28 10:24:56;;;;;;;1132.97;999.90;;;;;;;;;;4973124;28;20029;-80
2021/08/28 10:27:22;;;;;;;1122.93;999.90;;;;;;;;;;4968125;28;20609;-79
2021/08/28 10:29:48;;;;;;;1130.38;999.90;;;;;;;;;;4987805;28;20061;-79
2021/08/28 10:32:15;;;;;;;1140.90;999.90;;;;;;;;;;4971534;28;20065;-80
2021/08/28 10:34:41;;;;;;;1140.13;999.90;;;;;;;;;;4987633;28;20031;-80
2021/08/28 10:37:07;;;;;;;1146.55;999.90;;;;;;;;;;4972116;28;20034;-79
2021/08/28 10:39:34;;;;;;;1147.13;999.90;;;;;;;;;;4986948;28;20169;-79
2021/08/28 10:42:00;;;;;;;1147.95;999.90;;;;;;;;;;4969818;28;20061;-80
2021/08/28 10:44:26;;;;;;;1155.40;999.90;;;;;;;;;;4968354;28;20022;-78
2021/08/28 10:46:52;;;;;;;1159.13;999.90;;;;;;;;;;4968523;28;20026;-78
2021/08/28 10:49:21;;;;;;;1160.32;999.90;;;;;;;;;;4968621;28;20022;-79
2021/08/28 10:51:47;;;;;;;1180.78;999.90;;;;;;;;;;4971115;28;20037;-79
2021/08/28 10:54:14;;;;;;;1165.28;999.90;;;;;;;;;;4969053;28;20026;-79
2021/08/28 10:56:43;;;;;;;1185.43;999.90;;;;;;;;;;4972269;28;20022;-79
2021/08/28 10:59:16;;;;;;;1186.55;999.90;;;;;;;;;;4972161;28;20628;-79
2021/08/28 11:02:01;;;;;;;1176.32;999.90;;;;;;;;;;4988336;28;20041;-79
2021/08/28 11:04:31;;;;;;;1161.32;999.90;;;;;;;;;;4986251;28;20025;-79
2021/08/28 11:07:15;;;;;;;1158.15;999.90;;;;;;;;;;4992045;28;20026;-80
2021/08/28 11:10:00;;;;;;;1158.07;999.90;;;;;;;;;;4984278;28;20035;-79
2021/08/28 11:12:52;;;;;;;1160.65;999.90;;;;;;;;;;4969473;28;20081;-79
2021/08/28 11:15:27;;;;;;;1152.18;999.90;;;;;;;;;;4982357;28;20152;-78
2021/08/28 11:17:57;;;;;;;1172.75;999.90;;;;;;;;;;4987853;28;20104;-76
2021/08/28 11:20:25;;;;;;;1187.38;999.90;;;;;;;;;;4973772;28;20505;-77
2021/08/28 11:22:51;;;;;;;1206.50;999.90;;;;;;;;;;4989637;28;20041;-79
2021/08/28 11:25:22;;;;;;;1217.53;999.90;;;;;;;;;;4985615;28;20340;-77
2021/08/28 11:27:53;;;;;;;1216.43;999.90;;;;;;;;;;4986116;28;20632;-77
2021/08/28 11:30:39;;;;;;;1204.45;999.90;;;;;;;;;;4991520;28;20113;-77
2021/08/28 11:33:09;;;;;;;1216.13;999.90;;;;;;;;;;4957272;28;20030;-77
2021/08/28 11:35:39;;;;;;;1223.43;999.90;;;;;;;;;;4973481;28;20029;-77
2021/08/28 11:38:06;;;;;;;1244.93;999.90;;;;;;;;;;4987252;28;20026;-77
2021/08/28 11:40:33;;;;;;;1241.22;999.90;;;;;;;;;;4988796;28;20092;-77
2021/08/28 11:42:59;;;;;;;1246.43;999.90;;;;;;;;;;4992867;28;20022;-77
2021/08/28 11:45:29;;;;;;;1236.50;999.90;;;;;;;;;;4967403;28;20026;-77
2021/08/28 11:47:56;;;;;;;1227.28;999.90;;;;;;;;;;4984323;28;20058;-77
2021/08/28 11:50:28;;;;;;;1224.50;999.90;;;;;;;;;;4968451;28;20022;-76
2021/08/28 11:52:54;;;;;;;1220.95;999.90;;;;;;;;;;4984272;28;20129;-77
2021/08/28 11:55:23;;;;;;;1223.47;999.90;;;;;;;;;;4989889;28;20117;-77
2021/08/28 11:58:03;;;;;;;1214.68;999.90;;;;;;;;;;4986575;28;20026;-77
2021/08/28 12:00:29;;;;;;;1219.22;999.90;;;;;;;;;;4985933;28;20042;-77
2021/08/28 12:02:59;;;;;;;1229.90;999.90;;;;;;;;;;4987871;28;20496;-77
2021/08/28 12:05:25;;;;;;;1239.90;999.90;;;;;;;;;;4985476;28;20046;-77
2021/08/28 12:07:54;;;;;;;1253.63;999.90;;;;;;;;;;4984875;28;20040;-77
2021/08/28 12:10:22;;;;;;;1252.93;999.90;;;;;;;;;;5004227;28;20101;-77
2021/08/28 12:13:01;;;;;;;1253.40;999.90;;;;;;;;;;4974240;28;20034;-78
2021/08/28 12:15:28;;;;;;;1239.57;999.90;;;;;;;;;;4989162;28;20039;-77
2021/08/28 12:17:54;;;;;;;1236.63;999.90;;;;;;;;;;4989175;28;20026;-77
2021/08/28 12:20:24;;;;;;;1224.85;999.90;;;;;;;;;;4990809;28;20033;-77
2021/08/28 12:22:50;;;;;;;1207.20;999.90;;;;;;;;;;4960730;28;20027;-77
2021/08/28 12:25:16;;;;;;;1217.07;999.90;;;;;;;;;;4990813;28;20077;-77
2021/08/28 12:27:45;;;;;;;1214.38;999.90;;;;;;;;;;4972389;28;20034;-77
2021/08/28 12:30:11;;;;;;;1208.00;999.90;;;;;;;;;;4993200;28;20032;-77
2021/08/28 12:32:37;;;;;;;1204.95;999.90;;;;;;;;;;4977999;28;20056;-77
2021/08/28 12:35:03;;;;;;;1200.55;999.90;;;;;;;;;;4988024;28;20062;-77
2021/08/28 12:37:29;;;;;;;1177.82;999.90;;;;;;;;;;4968582;28;20049;-79
2021/08/28 12:40:01;;;;;;;1195.15;999.90;;;;;;;;;;4989631;28;20027;-78
2021/08/28 12:42:30;;;;;;;1206.43;999.90;;;;;;;;;;4974607;28;20026;-79
2021/08/28 12:45:01;;;;;;;1505.25;999.90;;;;;;;;;;4989786;28;20295;-78
2021/08/28 12:47:30;;;;;;;1166.53;999.90;;;;;;;;;;4990590;28;20386;-78
2021/08/28 12:49:56;;;;;;;1170.20;999.90;;;;;;;;;;4990738;28;20033;-78
2021/08/28 12:52:33;;;;;;;1162.25;999.90;;;;;;;;;;4971139;28;20529;-78
2021/08/28 12:55:00;;;;;;;1615.88;999.90;;;;;;;;;;4973003;28;20026;-78
2021/08/28 12:57:28;;;;;;;1169.45;999.90;;;;;;;;;;4972655;28;20097;-78
2021/08/28 12:59:55;;;;;;;1173.68;999.90;;;;;;;;;;4979695;28;20048;-78
2021/08/28 13:02:25;;;;;;;1249.53;999.90;;;;;;;;;;4992275;28;20037;-78
2021/08/28 13:04:52;;;;;;;1163.97;999.90;;;;;;;;;;4992360;28;20029;-78
2021/08/28 13:07:19;;;;;;;1999.90;999.90;;;;;;;;;;4991630;28;20061;-78
2021/08/28 13:10:00;;;;;;;1999.90;999.90;;;;;;;;;;4991759;28;20052;-77
2021/08/28 13:12:45;;;;;;;1999.90;999.90;;;;;;;;;;4971833;28;20422;-78
2021/08/28 13:15:12;;;;;;;1999.90;999.90;;;;;;;;;;4990580;28;20053;-78
2021/08/28 13:17:40;;;;;;;1999.90;999.90;;;;;;;;;;4989024;28;20613;-78
2021/08/28 13:20:08;;;;;;;1999.90;999.90;;;;;;;;;;4990092;28;20386;-78
2021/08/28 13:22:42;;;;;;;1999.90;999.90;;;;;;;;;;4986717;28;20029;-78
2021/08/28 13:25:08;;;;;;;1999.90;999.90;;;;;;;;;;4971934;28;20044;-77
2021/08/28 13:27:42;;;;;;;1999.90;999.90;;;;;;;;;;4972481;28;20029;-78
2021/08/28 13:30:12;;;;;;;1999.90;999.90;;;;;;;;;;4990188;28;20026;-78
2021/08/28 13:32:50;;;;;;;1999.90;999.90;;;;;;;;;;4980533;28;20529;-78
2021/08/28 13:35:16;;;;;;;1999.90;999.90;;;;;;;;;;5009700;28;20034;-77
2021/08/28 13:37:42;;;;;;;1999.90;999.90;;;;;;;;;;5009418;28;20056;-78
2021/08/28 13:40:08;;;;;;;1999.90;999.90;;;;;;;;;;4982519;28;20030;-78
2021/08/28 13:42:34;;;;;;;1999.90;999.90;;;;;;;;;;4976053;28;20022;-75
2021/08/28 13:45:00;;;;;;;678.17;605.28;;;;;;;;;;4988519;28;20030;-75